Time;durP1;ratioP1;P1;durP2;ratioP2;P2;SDS_P1;SDS_P2;PMS_P1;PMS_P2;Temp;Humidity;BMP_temperature;BMP_pressure;BME280_temperature;BME280_humidity;BME280_pressure;Samples;Min_cycle;Max_cycle;Signal;HPM_P1;HPM_P2
2022/03/22 00:00:35;;;;;;;20.20;14.80;;;;;;;9.62;36.31;102976.81;5018366;28;20470;-76
2022/03/22 00:03:01;;;;;;;16.33;14.33;;;;;;;9.57;36.61;102984.38;5019202;28;20826;-76
2022/03/22 00:05:27;;;;;;;16.83;14.40;;;;;;;9.61;36.68;102980.22;5019591;28;20464;-78
2022/03/22 00:07:53;;;;;;;16.30;14.63;;;;;;;9.46;37.06;102979.44;5019231;28;20448;-75
2022/03/22 00:10:19;;;;;;;21.33;15.40;;;;;;;9.74;36.39;102984.31;5018835;28;20171;-75
2022/03/22 00:12:44;;;;;;;18.33;15.33;;;;;;;9.32;37.13;102987.44;5018985;28;20179;-74
2022/03/22 00:15:11;;;;;;;16.80;14.70;;;;;;;9.54;36.92;102979.00;5018657;28;20425;-75
2022/03/22 00:17:37;;;;;;;19.13;15.10;;;;;;;9.50;36.89;102983.97;5018918;28;20441;-74
2022/03/22 00:20:04;;;;;;;17.63;14.83;;;;;;;9.59;36.81;102984.44;5019194;28;20402;-75
2022/03/22 00:22:29;;;;;;;16.60;14.80;;;;;;;9.48;36.74;102983.91;5018685;28;20473;-77
2022/03/22 00:24:54;;;;;;;21.03;15.43;;;;;;;9.48;36.98;102989.09;5018591;28;20418;-76
2022/03/22 00:27:20;;;;;;;17.10;14.63;;;;;;;9.55;36.91;102990.31;5019325;28;20170;-75
2022/03/22 00:29:45;;;;;;;19.00;15.00;;;;;;;9.29;37.77;102984.69;5021040;28;20179;-77
2022/03/22 00:32:11;;;;;;;21.37;13.70;;;;;;;10.64;53.20;102980.75;5028488;28;20228;-61
2022/03/22 00:34:44;;;;;;;9.90;8.90;;;;;;;13.51;52.22;102965.00;5026871;28;20200;-59
2022/03/22 00:37:14;;;;;;;11.77;10.60;;;;;;;14.49;48.08;102956.66;5018499;28;20437;-63
2022/03/22 00:39:41;;;;;;;18.10;14.37;;;;;;;11.50;34.01;102965.31;5036263;28;20409;-77
2022/03/22 00:42:06;;;;;;;18.97;15.20;;;;;;;10.54;35.81;102974.19;5037538;28;20467;-75
2022/03/22 00:44:31;;;;;;;18.27;14.60;;;;;;;10.21;36.29;102980.50;5037628;28;20417;-76
2022/03/22 00:46:57;;;;;;;17.73;15.40;;;;;;;9.89;37.12;102976.34;5031237;28;20485;-75
2022/03/22 00:49:22;;;;;;;22.30;15.63;;;;;;;9.58;37.20;102972.25;5018471;28;20170;-75
2022/03/22 00:51:47;;;;;;;18.03;15.77;;;;;;;9.77;36.88;102974.94;5018502;28;20510;-74
2022/03/22 00:54:13;;;;;;;25.67;15.83;;;;;;;9.54;37.52;102978.09;5019044;28;20261;-75
2022/03/22 00:56:38;;;;;;;17.37;14.87;;;;;;;9.51;36.92;102977.97;5018525;28;20221;-75
2022/03/22 01:01:48;;;;;;;19.03;15.30;;;;;;;9.12;37.68;102977.72;5018450;28;20545;-77
2022/03/22 01:04:14;;;;;;;24.53;16.43;;;;;;;9.29;37.62;102978.59;5028248;28;20498;-77
2022/03/22 01:06:39;;;;;;;17.40;14.43;;;;;;;8.98;37.94;102980.50;5038877;28;20416;-77
2022/03/22 01:09:04;;;;;;;18.27;15.03;;;;;;;8.94;38.57;102981.16;5038606;28;20235;-80
2022/03/22 01:11:30;;;;;;;17.80;15.90;;;;;;;8.83;38.36;102979.69;5037578;28;20197;-77
2022/03/22 01:13:56;;;;;;;17.83;14.53;;;;;;;8.78;38.77;102987.25;5038699;28;20200;-77
2022/03/22 01:16:21;;;;;;;17.83;15.10;;;;;;;8.86;38.46;102982.44;5038132;28;20184;-77
2022/03/22 01:18:46;;;;;;;19.43;15.50;;;;;;;8.91;38.48;102983.59;5045719;28;20182;-78
2022/03/22 01:21:12;;;;;;;19.60;15.10;;;;;;;8.99;37.48;102989.22;5040603;28;20194;-79
2022/03/22 01:23:37;;;;;;;16.63;14.57;;;;;;;8.99;37.97;102984.00;5038410;28;20197;-79
2022/03/22 01:26:05;;;;;;;18.87;15.80;;;;;;;8.42;38.71;102989.63;5038215;28;20261;-78
2022/03/22 01:28:30;;;;;;;18.77;15.43;;;;;;;8.84;37.66;102989.28;5038487;28;20158;-77
2022/03/22 01:30:56;;;;;;;16.87;14.17;;;;;;;8.85;37.87;102978.06;5032947;28;20682;-79
2022/03/22 01:33:21;;;;;;;20.13;15.20;;;;;;;8.70;37.69;102981.66;5033933;28;20233;-75
2022/03/22 01:35:46;;;;;;;18.17;15.30;;;;;;;9.05;38.23;102977.41;5018628;28;20171;-77
2022/03/22 01:38:12;;;;;;;18.80;14.50;;;;;;;8.92;38.17;102969.78;5018485;28;20171;-77
2022/03/22 01:40:38;;;;;;;16.77;14.97;;;;;;;9.03;38.74;102967.75;5017665;28;20199;-76
2022/03/22 01:43:04;;;;;;;20.03;15.97;;;;;;;9.10;38.13;102978.53;5018931;28;20229;-75
2022/03/22 01:45:29;;;;;;;20.50;16.30;;;;;;;9.15;38.03;102967.50;5018246;28;20505;-76
2022/03/22 01:47:58;;;;;;;16.30;14.60;;;;;;;9.02;38.30;102961.63;5018255;28;20195;-75
2022/03/22 01:50:23;;;;;;;18.23;15.50;;;;;;;8.64;37.72;102967.44;5018527;28;20255;-75
2022/03/22 01:52:49;;;;;;;18.27;14.97;;;;;;;8.95;37.34;102964.72;5018013;28;20858;-76
2022/03/22 01:55:16;;;;;;;16.13;14.40;;;;;;;9.04;38.05;102957.41;5018057;28;20422;-76
2022/03/22 01:57:42;;;;;;;17.53;15.73;;;;;;;8.83;38.27;102953.69;5018727;28;20182;-76
2022/03/22 02:00:11;;;;;;;20.67;16.33;;;;;;;9.00;37.60;102949.34;5017844;28;20414;-77
2022/03/22 02:08:07;;;;;;;18.27;15.77;;;;;;;8.91;38.24;102957.59;5021077;28;20513;-76
2022/03/22 02:10:32;;;;;;;17.13;15.37;;;;;;;9.06;38.25;102954.88;5021705;28;20421;-77
2022/03/22 02:12:57;;;;;;;16.27;14.57;;;;;;;8.47;37.64;102954.41;5021550;28;20422;-77
2022/03/22 02:15:23;;;;;;;17.03;15.23;;;;;;;8.85;37.93;102950.34;5022022;28;20434;-75
2022/03/22 02:17:50;;;;;;;17.20;15.40;;;;;;;8.90;37.70;102954.09;5021298;28;20178;-76
2022/03/22 02:20:16;;;;;;;17.90;14.67;;;;;;;8.93;38.43;102949.03;5020307;28;20182;-77
2022/03/22 02:22:51;;;;;;;16.97;15.00;;;;;;;9.01;37.82;102945.94;5021955;28;20418;-77
2022/03/22 02:25:16;;;;;;;17.20;15.00;;;;;;;8.67;37.38;102938.97;5021681;28;20528;-77
2022/03/22 02:27:44;;;;;;;17.73;15.83;;;;;;;9.10;37.53;102944.69;5021633;28;20468;-78
2022/03/22 02:30:13;;;;;;;19.63;16.30;;;;;;;8.46;38.26;102943.91;5021249;28;20440;-77
2022/03/22 02:32:40;;;;;;;19.30;16.97;;;;;;;8.61;37.68;102936.06;5021172;28;20466;-78
2022/03/22 02:35:06;;;;;;;20.20;15.30;;;;;;;8.84;37.60;102935.56;5021851;28;20429;-76
2022/03/22 02:37:32;;;;;;;19.90;15.60;;;;;;;8.65;37.09;102938.91;5021648;28;20489;-78
2022/03/22 02:39:57;;;;;;;20.03;16.60;;;;;;;8.78;37.51;102937.81;5023179;28;20712;-78
2022/03/22 02:42:22;;;;;;;18.00;14.73;;;;;;;8.53;39.00;102927.84;5020344;28;20210;-75
2022/03/22 02:44:48;;;;;;;17.33;14.70;;;;;;;8.77;37.78;102934.34;5021096;28;20179;-77
2022/03/22 02:47:13;;;;;;;18.13;16.03;;;;;;;8.34;37.26;102934.63;5020881;28;20175;-78
2022/03/22 02:49:39;;;;;;;17.33;15.53;;;;;;;8.65;38.64;102938.03;5021548;28;20167;-77
2022/03/22 02:52:05;;;;;;;17.17;15.33;;;;;;;8.73;38.03;102927.19;5020941;28;20175;-77
2022/03/22 02:54:30;;;;;;;17.17;15.37;;;;;;;8.36;38.54;102934.69;5021017;28;20815;-77
2022/03/22 02:56:56;;;;;;;17.13;15.33;;;;;;;8.49;37.36;102934.59;5021278;28;20171;-77
2022/03/22 02:59:21;;;;;;;17.43;14.60;;;;;;;8.43;38.52;102932.53;5021056;28;20187;-77
2022/03/22 03:01:46;;;;;;;17.07;15.37;;;;;;;8.42;38.37;102930.72;5020826;28;20269;-75
2022/03/22 03:04:11;;;;;;;19.13;15.03;;;;;;;8.16;38.63;102925.81;5021335;28;20603;-76
2022/03/22 03:06:38;;;;;;;19.47;15.27;;;;;;;8.19;38.17;102936.41;5020612;28;20210;-77
2022/03/22 03:09:03;;;;;;;18.13;15.77;;;;;;;8.42;38.30;102929.84;5020943;28;20177;-77
2022/03/22 03:11:29;;;;;;;22.03;15.67;;;;;;;7.97;38.41;102935.22;5020751;28;20432;-76
2022/03/22 03:16:39;;;;;;;17.97;15.40;;;;;;;7.96;38.25;102925.63;5020645;28;20185;-78
2022/03/22 03:19:05;;;;;;;20.90;15.13;;;;;;;7.54;38.99;102938.84;5038218;28;20406;-77
2022/03/22 03:21:30;;;;;;;17.30;15.50;;;;;;;7.64;39.75;102941.97;5022129;28;20479;-77
2022/03/22 03:23:55;;;;;;;18.43;15.00;;;;;;;7.80;39.45;102939.44;5020316;28;20191;-78
2022/03/22 03:26:21;;;;;;;18.30;15.50;;;;;;;7.89;39.28;102936.50;5020252;28;20189;-76
2022/03/22 03:28:46;;;;;;;20.30;14.77;;;;;;;7.84;38.58;102938.81;5020334;28;20181;-78
2022/03/22 03:31:11;;;;;;;16.90;15.10;;;;;;;7.84;39.51;102941.41;5021022;28;20171;-77
2022/03/22 03:33:37;;;;;;;16.67;14.90;;;;;;;7.78;40.20;102937.56;5020214;28;20194;-77
2022/03/22 03:36:03;;;;;;;20.90;16.10;;;;;;;7.53;39.77;102941.38;5019944;28;20179;-78
2022/03/22 03:38:29;;;;;;;16.50;14.20;;;;;;;7.70;40.04;102940.63;5020145;28;20258;-76
2022/03/22 03:43:37;;;;;;;17.50;14.37;;;;;;;7.63;40.10;102948.88;5019984;28;20225;-77
2022/03/22 03:48:46;;;;;;;17.60;15.60;;;;;;;7.34;40.95;102955.84;5020032;28;20190;-76
2022/03/22 03:51:12;;;;;;;18.23;15.83;;;;;;;7.16;40.70;102952.19;5019808;28;20691;-77
2022/03/22 03:53:37;;;;;;;18.40;15.27;;;;;;;7.34;40.77;102955.84;5019795;28;20183;-78
2022/03/22 03:56:02;;;;;;;19.40;15.20;;;;;;;7.34;41.28;102961.03;5019987;28;20183;-77
2022/03/22 03:58:27;;;;;;;16.97;14.77;;;;;;;7.32;40.91;102956.56;5020207;28;20552;-77
2022/03/22 04:00:53;;;;;;;18.80;15.00;;;;;;;7.17;41.60;102948.78;5019608;28;20199;-77
2022/03/22 04:03:18;;;;;;;22.80;15.60;;;;;;;7.22;41.35;102953.44;5019604;28;20186;-78
2022/03/22 04:05:43;;;;;;;18.50;15.63;;;;;;;7.25;41.49;102956.22;5019991;28;20556;-77
2022/03/22 04:08:10;;;;;;;19.50;16.43;;;;;;;7.13;41.42;102949.41;5019627;28;20234;-76
2022/03/22 04:10:35;;;;;;;17.43;15.23;;;;;;;7.51;41.78;102956.84;5019630;28;20175;-76
2022/03/22 04:13:00;;;;;;;16.70;14.50;;;;;;;7.46;41.84;102958.28;5019333;28;20409;-77
2022/03/22 04:15:26;;;;;;;17.97;15.40;;;;;;;7.04;42.72;102957.53;5019393;28;20474;-76
2022/03/22 04:17:52;;;;;;;23.83;15.90;;;;;;;7.19;41.98;102955.84;5019521;28;20182;-77
2022/03/22 04:20:21;;;;;;;17.37;14.80;;;;;;;7.07;41.54;102961.19;5019872;28;20167;-78
2022/03/22 04:22:47;;;;;;;17.87;15.47;;;;;;;7.10;42.50;102960.50;5018864;28;20410;-76
2022/03/22 04:25:12;;;;;;;21.80;15.40;;;;;;;7.14;42.36;102957.28;5019019;28;20829;-77
2022/03/22 04:33:07;;;;;;;19.77;16.20;;;;;;;7.52;41.65;102969.03;4998843;28;20462;-77
2022/03/22 04:35:34;;;;;;;18.37;15.50;;;;;;;7.53;41.50;102965.59;5019135;28;20480;-76
2022/03/22 04:37:59;;;;;;;19.50;15.80;;;;;;;7.41;41.84;102963.22;5019100;28;20500;-77
2022/03/22 04:40:25;;;;;;;20.80;15.10;;;;;;;7.35;41.91;102968.03;5019524;28;20249;-77
2022/03/22 04:42:51;;;;;;;18.30;16.10;;;;;;;7.12;42.00;102968.34;5019161;28;20349;-76
2022/03/22 04:45:17;;;;;;;18.50;15.63;;;;;;;7.17;42.76;102969.53;5018839;28;20498;-77
2022/03/22 04:47:46;;;;;;;18.17;16.07;;;;;;;6.81;42.89;102974.31;5019380;28;20175;-76
2022/03/22 04:50:13;;;;;;;20.03;17.03;;;;;;;7.20;41.89;102968.03;5018752;28;20460;-75
2022/03/22 04:58:07;;;;;;;20.83;15.90;;;;;;;6.73;43.13;102969.53;5018947;28;20682;-77
2022/03/22 05:00:35;;;;;;;18.37;15.43;;;;;;;7.23;43.22;102967.31;5017691;28;20421;-77
2022/03/22 05:03:03;;;;;;;21.63;15.37;;;;;;;6.93;43.67;102968.94;5018958;28;20214;-76
2022/03/22 05:08:13;;;;;;;19.10;15.37;;;;;;;6.99;43.59;102972.81;5018640;28;20420;-77
2022/03/22 05:10:38;;;;;;;20.20;15.60;;;;;;;7.00;43.55;102974.59;5018949;28;20417;-76
2022/03/22 05:13:04;;;;;;;17.90;15.83;;;;;;;7.10;44.72;102976.06;5018685;28;20263;-77
2022/03/22 05:15:31;;;;;;;18.03;15.50;;;;;;;7.27;43.88;102976.19;5019204;28;20167;-77
2022/03/22 05:17:57;;;;;;;25.23;16.33;;;;;;;6.99;43.79;102983.19;5030123;28;20154;-76
2022/03/22 05:20:23;;;;;;;21.73;16.53;;;;;;;7.20;44.13;102981.00;5026670;28;20729;-75
2022/03/22 05:22:48;;;;;;;20.00;16.40;;;;;;;6.84;44.20;102992.63;5018338;28;20410;-76
2022/03/22 05:25:13;;;;;;;18.80;15.30;;;;;;;6.91;44.56;102989.59;5019185;28;20175;-75
2022/03/22 05:27:39;;;;;;;21.17;15.57;;;;;;;6.86;44.02;102978.06;5018480;28;20210;-76
2022/03/22 05:30:05;;;;;;;17.83;15.50;;;;;;;6.95;44.48;102981.22;5018659;28;20266;-75
2022/03/22 05:32:31;;;;;;;18.60;15.80;;;;;;;7.15;43.88;102990.19;5018083;28;20246;-75
2022/03/22 05:34:56;;;;;;;20.67;15.30;;;;;;;7.13;44.48;102989.22;5018493;28;20833;-75
2022/03/22 05:37:22;;;;;;;19.97;16.67;;;;;;;7.23;44.56;102988.94;5022427;28;20206;-76
2022/03/22 05:39:47;;;;;;;20.03;16.00;;;;;;;7.21;44.25;102993.16;5022359;28;20528;-76
2022/03/22 05:42:13;;;;;;;20.07;16.07;;;;;;;7.07;45.09;102987.13;5021744;28;20221;-77
2022/03/22 05:44:39;;;;;;;18.93;15.50;;;;;;;7.14;43.71;102992.69;5022396;28;20181;-77
2022/03/22 05:47:06;;;;;;;17.30;15.10;;;;;;;7.36;43.27;102994.88;5022336;28;20418;-77
2022/03/22 05:49:33;;;;;;;21.20;16.83;;;;;;;7.03;42.93;103003.31;5022115;28;20257;-74
2022/03/22 05:51:58;;;;;;;21.03;16.00;;;;;;;7.16;42.66;102996.31;5022031;28;20417;-74
2022/03/22 05:54:24;;;;;;;19.50;16.13;;;;;;;7.32;42.61;102992.91;5021929;28;20475;-77
2022/03/22 05:56:49;;;;;;;21.83;16.17;;;;;;;7.14;43.29;102997.88;5021739;28;20167;-75
2022/03/22 05:59:15;;;;;;;18.63;15.83;;;;;;;7.45;42.72;102994.53;5022091;28;20426;-78
2022/03/22 06:01:44;;;;;;;19.30;16.17;;;;;;;7.22;41.31;103004.44;5022006;28;20286;-77
2022/03/22 06:04:09;;;;;;;16.97;15.17;;;;;;;7.00;41.72;103010.91;5021925;28;20235;-77
2022/03/22 06:06:35;;;;;;;20.43;15.80;;;;;;;7.32;41.92;102998.09;5022329;28;20493;-78
2022/03/22 06:09:00;;;;;;;17.47;15.67;;;;;;;7.59;41.15;102993.66;5022025;28;20647;-77
2022/03/22 06:11:26;;;;;;;19.07;15.77;;;;;;;7.80;40.67;102993.09;5021624;28;20445;-77
2022/03/22 06:13:51;;;;;;;21.20;17.10;;;;;;;7.84;39.89;102997.66;5022009;28;20455;-77
2022/03/22 06:16:16;;;;;;;23.20;16.90;;;;;;;8.05;40.02;102998.88;5018287;28;20183;-77
2022/03/22 06:18:42;;;;;;;18.87;16.23;;;;;;;8.19;39.77;102998.75;5020202;28;20182;-77
2022/03/22 06:21:07;;;;;;;19.47;17.50;;;;;;;8.64;39.61;103002.13;5019858;28;20211;-78
2022/03/22 06:23:33;;;;;;;23.43;16.80;;;;;;;8.68;39.21;103006.66;5020868;28;20175;-77
2022/03/22 06:25:58;;;;;;;19.77;17.67;;;;;;;8.88;38.55;103012.94;5021360;28;20221;-77
2022/03/22 06:28:23;;;;;;;21.10;17.43;;;;;;;8.30;38.92;103013.22;5021432;28;20416;-78
2022/03/22 06:30:49;;;;;;;22.43;18.10;;;;;;;8.85;38.53;103010.19;5020960;28;20214;-77
2022/03/22 06:33:17;;;;;;;20.80;17.67;;;;;;;9.16;37.75;103010.88;5020663;28;20611;-78
2022/03/22 06:35:43;;;;;;;19.00;17.00;;;;;;;9.51;36.29;103009.19;5017127;28;20221;-79
2022/03/22 06:38:08;;;;;;;22.00;18.87;;;;;;;10.24;35.31;103004.13;5005074;28;20903;-76
2022/03/22 06:40:34;;;;;;;19.40;17.27;;;;;;;11.19;33.78;103005.78;5003513;28;20502;-78
2022/03/22 06:43:03;;;;;;;18.87;16.90;;;;;;;11.05;33.88;103010.41;5021482;28;20171;-77
2022/03/22 06:45:29;;;;;;;23.53;18.63;;;;;;;10.86;34.12;103006.97;5020839;28;20322;-77
2022/03/22 06:47:54;;;;;;;23.83;17.70;;;;;;;11.04;33.73;103012.13;5019546;28;20517;-77
2022/03/22 06:50:20;;;;;;;21.00;18.30;;;;;;;10.96;34.55;103010.91;5019075;28;20175;-77
2022/03/22 06:52:46;;;;;;;21.37;19.00;;;;;;;10.78;34.18;103017.09;5020052;28;20203;-78
2022/03/22 06:55:13;;;;;;;23.10;17.70;;;;;;;11.07;33.42;103001.81;5020696;28;20171;-78
2022/03/22 06:57:39;;;;;;;21.90;18.67;;;;;;;11.21;33.51;103004.16;5021253;28;20175;-77
2022/03/22 07:00:08;;;;;;;21.23;18.87;;;;;;;11.52;32.99;103006.34;5013565;28;20430;-78
2022/03/22 07:02:35;;;;;;;22.10;18.60;;;;;;;11.93;33.38;102996.72;5001114;28;20471;-77
2022/03/22 07:05:00;;;;;;;21.73;18.80;;;;;;;12.27;32.26;103002.41;5001367;28;20491;-78
2022/03/22 07:07:26;;;;;;;22.20;18.70;;;;;;;12.06;31.82;103005.97;5000990;28;20443;-78
2022/03/22 07:09:51;;;;;;;20.30;18.30;;;;;;;12.44;31.38;103001.34;5000969;28;20180;-77
2022/03/22 07:12:16;;;;;;;23.40;18.63;;;;;;;12.59;31.20;103008.00;5001864;28;20168;-75
2022/03/22 07:14:42;;;;;;;21.47;18.97;;;;;;;12.32;31.29;103010.44;5000159;28;20177;-76
2022/03/22 07:17:11;;;;;;;20.90;18.70;;;;;;;12.95;31.03;103011.09;5020784;28;20455;-75
2022/03/22 07:19:37;;;;;;;21.90;19.50;;;;;;;13.40;30.57;103014.44;5033540;28;20169;-75
2022/03/22 07:22:04;;;;;;;29.23;20.13;;;;;;;13.25;30.75;103014.75;5018935;28;20440;-77
2022/03/22 07:24:29;;;;;;;22.00;19.70;;;;;;;13.45;30.70;103005.88;5019019;28;20499;-77
2022/03/22 07:26:55;;;;;;;23.10;20.70;;;;;;;13.79;30.38;103009.63;5016675;28;20453;-76
2022/03/22 07:29:21;;;;;;;22.87;19.50;;;;;;;14.17;29.37;103006.47;5019275;28;20559;-77
2022/03/22 07:31:46;;;;;;;20.87;18.67;;;;;;;14.46;29.01;103009.97;5018765;28;20215;-77
2022/03/22 07:34:15;;;;;;;23.03;20.10;;;;;;;14.36;29.74;103012.28;5018485;28;20179;-77
2022/03/22 07:36:41;;;;;;;22.40;19.07;;;;;;;14.75;28.87;103012.59;5019300;28;20179;-78
2022/03/22 07:39:07;;;;;;;20.90;18.90;;;;;;;13.46;30.17;103015.53;5019288;28;20834;-75
2022/03/22 07:41:33;;;;;;;21.23;19.13;;;;;;;13.52;30.26;103013.94;5016742;28;20449;-74
2022/03/22 07:44:01;;;;;;;27.53;19.93;;;;;;;14.75;29.00;103009.97;5019009;28;20414;-74
2022/03/22 07:46:27;;;;;;;28.40;19.63;;;;;;;14.77;29.53;103010.88;5018541;28;20434;-76
2022/03/22 07:48:53;;;;;;;19.77;17.70;;;;;;;15.25;27.83;103011.31;5018655;28;21032;-76
2022/03/22 07:54:03;;;;;;;24.13;20.00;;;;;;;15.56;27.34;103002.50;5019630;28;20189;-75
2022/03/22 07:56:30;;;;;;;24.27;19.67;;;;;;;15.00;28.34;103013.28;5019443;28;20672;-76
2022/03/22 07:58:55;;;;;;;22.43;19.87;;;;;;;14.94;28.47;103016.63;5018828;28;20167;-74
2022/03/22 08:01:21;;;;;;;26.23;20.40;;;;;;;14.10;29.85;103028.09;5019364;28;20469;-76
2022/03/22 08:03:46;;;;;;;22.57;19.10;;;;;;;16.07;27.10;103018.66;5019091;28;20206;-74
2022/03/22 08:06:11;;;;;;;22.50;20.27;;;;;;;16.12;26.65;103014.38;5018887;28;20301;-74
2022/03/22 08:08:37;;;;;;;21.73;19.40;;;;;;;15.51;27.50;103019.91;5019703;28;20159;-77
2022/03/22 08:11:05;;;;;;;23.20;20.60;;;;;;;16.41;26.56;103017.69;5019024;28;20170;-74
2022/03/22 08:13:32;;;;;;;21.30;19.07;;;;;;;15.35;27.63;103029.13;5034554;28;20171;-75
2022/03/22 08:16:01;;;;;;;24.80;19.90;;;;;;;16.39;26.32;103016.75;5018776;28;20373;-75
2022/03/22 08:18:28;;;;;;;21.40;18.50;;;;;;;15.76;27.33;103018.78;5014043;28;20434;-74
2022/03/22 08:20:53;;;;;;;21.63;19.53;;;;;;;16.52;26.33;103022.28;5018435;28;20450;-75
2022/03/22 08:23:20;;;;;;;27.40;19.87;;;;;;;17.90;24.42;103018.72;5018972;28;20429;-77
2022/03/22 08:25:49;;;;;;;24.23;18.43;;;;;;;17.07;25.25;103027.81;5018877;28;20190;-78
2022/03/22 08:28:16;;;;;;;13.00;11.70;;;;;;;20.63;31.36;103006.47;5018375;28;20417;-61
2022/03/22 08:30:42;;;;;;;16.90;15.20;;;;;;;20.66;24.88;103014.41;5023729;28;20429;-78
2022/03/22 08:33:11;;;;;;;21.13;18.80;;;;;;;19.13;22.70;103016.88;5035388;28;20471;-79
2022/03/22 08:35:52;;;;;;;20.60;18.60;;;;;;;18.36;23.85;103015.91;5018772;28;20472;-77
2022/03/22 08:38:20;;;;;;;20.87;18.73;;;;;;;18.96;23.18;103010.50;5008937;28;20425;-77
2022/03/22 08:40:47;;;;;;;22.13;18.37;;;;;;;18.82;23.09;103013.84;5018046;28;20437;-78
2022/03/22 08:43:12;;;;;;;20.97;18.90;;;;;;;18.73;23.20;103018.13;5018998;28;20426;-77
2022/03/22 08:45:38;;;;;;;21.57;19.37;;;;;;;19.61;21.96;103019.06;5019121;28;20414;-78
2022/03/22 08:48:09;;;;;;;21.30;19.17;;;;;;;19.21;22.11;103014.28;5039153;28;20194;-80
2022/03/22 08:50:35;;;;;;;21.37;18.77;;;;;;;19.62;22.38;103021.72;5038699;28;20185;-81
2022/03/22 08:53:01;;;;;;;23.13;20.37;;;;;;;19.84;22.03;103020.16;5038718;28;20474;-79
2022/03/22 08:55:26;;;;;;;21.77;19.53;;;;;;;18.60;23.33;103032.94;5036166;28;20405;-78
2022/03/22 08:57:52;;;;;;;21.67;19.40;;;;;;;16.79;25.02;103032.50;5018076;28;20199;-76
2022/03/22 09:00:19;;;;;;;22.37;19.33;;;;;;;18.89;23.31;103027.16;5018251;28;20168;-76
2022/03/22 09:02:46;;;;;;;21.03;18.90;;;;;;;17.81;24.37;103030.00;5019358;28;20193;-77
2022/03/22 09:07:58;;;;;;;23.00;19.47;;;;;;;18.71;24.08;103030.44;5037889;28;20415;-77
2022/03/22 09:10:27;;;;;;;23.40;20.30;;;;;;;19.87;22.77;103018.41;5040728;28;20440;-76
2022/03/22 09:12:53;;;;;;;25.90;20.10;;;;;;;19.79;22.52;103021.84;5042204;28;20662;-75
2022/03/22 09:15:19;;;;;;;22.00;19.87;;;;;;;19.96;22.38;103019.34;5034501;28;20440;-76
2022/03/22 09:17:45;;;;;;;22.03;19.20;;;;;;;19.95;22.31;103022.00;5022349;28;20162;-76
2022/03/22 09:20:14;;;;;;;22.40;20.03;;;;;;;19.94;22.38;103018.44;5023508;28;20931;-76
2022/03/22 09:22:42;;;;;;;22.60;20.17;;;;;;;19.50;22.96;103019.84;5025869;28;20778;-79
2022/03/22 09:25:08;;;;;;;21.00;18.90;;;;;;;20.75;21.61;103006.53;5022139;28;20429;-77
2022/03/22 09:27:34;;;;;;;21.30;18.70;;;;;;;20.39;21.83;103004.59;5021791;28;20414;-75
2022/03/22 09:29:59;;;;;;;21.83;19.53;;;;;;;21.04;21.15;103008.41;5022353;28;20721;-77
2022/03/22 09:32:25;;;;;;;28.13;20.60;;;;;;;20.83;21.58;103002.13;5003020;28;20600;-78
2022/03/22 09:34:51;;;;;;;22.00;18.73;;;;;;;20.47;22.02;103006.41;5020924;28;20274;-75
2022/03/22 09:37:17;;;;;;;25.93;19.47;;;;;;;20.54;21.75;103004.66;5025921;28;20474;-77
2022/03/22 09:39:45;;;;;;;22.83;19.20;;;;;;;21.04;21.34;102997.78;5041408;28;20716;-76
2022/03/22 09:42:11;;;;;;;25.00;20.57;;;;;;;21.40;20.78;102993.38;5041022;28;20417;-77
2022/03/22 09:44:37;;;;;;;22.20;19.97;;;;;;;20.52;21.83;102993.16;5041562;28;20420;-75
2022/03/22 09:47:04;;;;;;;24.87;19.00;;;;;;;21.28;20.99;102988.06;5041174;28;20170;-79
2022/03/22 09:49:29;;;;;;;22.20;20.10;;;;;;;21.50;20.96;102991.59;5040276;28;20217;-77
2022/03/22 09:51:55;;;;;;;28.17;19.10;;;;;;;22.36;20.33;102990.63;5029303;28;20430;-77
2022/03/22 09:54:25;;;;;;;22.00;19.27;;;;;;;21.65;20.55;102993.41;5020689;28;20175;-78
2022/03/22 09:56:52;;;;;;;20.63;18.40;;;;;;;21.93;19.77;102988.94;5021073;28;20435;-77
2022/03/22 09:59:18;;;;;;;21.60;19.37;;;;;;;20.97;20.81;102985.38;5021590;28;20417;-79
2022/03/22 10:01:44;;;;;;;19.70;17.60;;;;;;;21.66;20.14;102987.22;5021988;28;20461;-81
2022/03/22 10:04:14;;;;;;;19.40;17.40;;;;;;;22.49;19.01;102976.41;5020072;28;20171;-74
2022/03/22 10:06:51;;;;;;;19.13;17.33;;;;;;;22.94;19.02;102983.25;5021403;28;20435;-74
2022/03/22 10:09:33;;;;;;;23.70;19.30;;;;;;;21.33;20.45;102991.63;5021087;28;20410;-74
2022/03/22 10:11:58;;;;;;;19.80;17.80;;;;;;;22.37;19.75;102987.09;5020853;28;20464;-75
2022/03/22 10:14:41;;;;;;;23.83;18.63;;;;;;;22.19;19.82;102986.22;5020668;28;20418;-73
2022/03/22 10:17:19;;;;;;;20.20;18.07;;;;;;;22.54;19.74;102977.28;5020860;28;20170;-74
2022/03/22 10:19:50;;;;;;;20.33;18.30;;;;;;;21.59;20.06;102981.03;5020872;28;20492;-73
2022/03/22 10:22:17;;;;;;;21.23;19.17;;;;;;;22.32;19.90;102978.22;5020441;28;20493;-73
2022/03/22 10:24:47;;;;;;;20.43;18.47;;;;;;;22.15;19.96;102976.50;5020959;28;20413;-73
2022/03/22 10:27:30;;;;;;;21.10;17.70;;;;;;;22.71;19.64;102966.53;5020896;28;20670;-77
2022/03/22 10:29:58;;;;;;;25.33;18.70;;;;;;;20.26;21.73;102985.13;5021199;28;20827;-76
2022/03/22 10:32:36;;;;;;;24.00;19.13;;;;;;;21.30;20.84;102975.72;5020934;28;20477;-79
2022/03/22 10:35:25;;;;;;;21.40;19.40;;;;;;;22.03;20.40;102982.72;5024416;28;20509;-78
2022/03/22 10:37:54;;;;;;;23.07;19.50;;;;;;;21.39;21.00;102972.16;5030087;28;20448;-78
2022/03/22 10:40:29;;;;;;;21.60;19.40;;;;;;;22.33;20.37;102972.88;5025778;28;20451;-76
2022/03/22 10:42:57;;;;;;;21.03;18.93;;;;;;;21.91;20.96;102971.28;5040161;28;20463;-78
2022/03/22 10:45:22;;;;;;;22.10;20.10;;;;;;;21.60;20.92;102976.63;5039844;28;20447;-75
2022/03/22 10:47:48;;;;;;;21.10;19.00;;;;;;;21.73;20.92;102978.38;5032119;28;20434;-77
2022/03/22 10:50:13;;;;;;;22.80;20.27;;;;;;;19.66;23.15;102975.88;5021546;28;20501;-77
2022/03/22 10:52:55;;;;;;;21.20;18.87;;;;;;;20.62;22.01;102983.47;5019769;28;20265;-78
2022/03/22 10:55:23;;;;;;;22.07;20.00;;;;;;;21.60;21.15;102979.28;5004896;28;20413;-79
2022/03/22 10:57:53;;;;;;;23.10;20.03;;;;;;;21.23;21.29;102981.88;5020252;28;20438;-77
2022/03/22 11:00:20;;;;;;;21.00;18.77;;;;;;;20.89;21.52;102980.09;5019590;28;20428;-75
2022/03/22 11:02:50;;;;;;;21.03;19.10;;;;;;;20.18;22.17;102983.28;5020452;28;20456;-78
2022/03/22 11:05:19;;;;;;;21.33;19.20;;;;;;;21.11;21.73;102978.34;5020237;28;20834;-77
2022/03/22 11:07:46;;;;;;;20.83;18.93;;;;;;;20.72;22.33;102979.16;5019746;28;20675;-77
2022/03/22 11:10:11;;;;;;;21.10;19.03;;;;;;;20.39;21.96;102979.00;5019535;28;20422;-76
2022/03/22 11:12:38;;;;;;;21.80;19.77;;;;;;;19.62;23.27;102981.13;5019055;28;20807;-77
2022/03/22 11:15:04;;;;;;;22.70;20.17;;;;;;;21.83;20.75;102965.97;5020163;28;20201;-76
2022/03/22 11:17:34;;;;;;;20.97;18.80;;;;;;;22.00;20.65;102966.81;5019543;28;20710;-73
2022/03/22 11:20:01;;;;;;;20.50;18.40;;;;;;;20.86;21.85;102973.00;5018792;28;20434;-76
2022/03/22 11:22:26;;;;;;;22.07;20.00;;;;;;;21.99;20.85;102961.50;5020286;28;20461;-80
2022/03/22 11:24:52;;;;;;;23.00;20.50;;;;;;;22.97;19.60;102957.50;5020531;28;20440;-74
2022/03/22 11:27:27;;;;;;;23.63;18.80;;;;;;;22.59;20.20;102955.97;5022135;28;20418;-78
2022/03/22 11:29:53;;;;;;;22.53;19.03;;;;;;;19.97;22.54;102965.53;5019583;28;20170;-78
2022/03/22 11:35:12;;;;;;;21.97;19.63;;;;;;;21.29;21.01;102955.38;5032637;28;20193;-75
2022/03/22 11:37:37;;;;;;;20.50;18.30;;;;;;;21.39;21.11;102953.59;5025943;28;20424;-74
2022/03/22 11:42:56;;;;;;;21.60;19.30;;;;;;;22.33;19.87;102950.75;5031430;28;20249;-80
2022/03/22 11:45:22;;;;;;;20.27;18.07;;;;;;;21.46;20.18;102950.94;5019332;28;20800;-74
2022/03/22 11:47:49;;;;;;;20.93;18.77;;;;;;;20.57;20.67;102948.16;5019217;28;20449;-74
2022/03/22 11:50:20;;;;;;;19.30;17.40;;;;;;;21.77;20.08;102935.00;5018573;28;20410;-76
2022/03/22 11:52:50;;;;;;;21.67;19.50;;;;;;;22.00;19.74;102944.66;5018860;28;20417;-74